Portada
METAR-TAF:

METAR-TAF

Aeroports :

Chambèri-Aix-les-Bains, França

latitud: 45-39N, longitud: 005-53E, altitud: 235 m

Observació

L'informe es va fer fa 35 minuts, a les 15:00 UTC
Vent 4 kt del Nord
Temperatura 20°C
Humitat 32%
Pressió 1018 hPa
Visibilitat 10 km o més
sense núvols per sota de 1500 mi sense presència de cumulonimbus.

METAR: LFLB 051500Z AUTO 36004KT CAVOK 20/03 Q1018 NOSIG

Hora: 17:35 (15:35 UTC)

Pronòstic

L'informe es va fer fa 4 hores i 35 minuts, a les 11:00 UTC
Pronòstic vàlid del 05 a les 12 UTC al 06 a les 12 UTC
Vent 3 kt amb direcció variable
Visibilitat 10 km o més
sense núvols per sota de 1500 mi sense presència de cumulonimbus.
Temporalment
l' 05 a les 12 UTC al 05 a les 18 UTC
Vent 6 kt del Nord/Nord-Oest
Temporalment
l' 06 a les 09 UTC al 06 a les 12 UTC
Vent 6 kt del Nord/Nord-Oest

TAF: LFLB 051100Z 0512/0612 VRB03KT CAVOK TEMPO 0512/0518 34006KT TEMPO 0609/0612 34006KT

Observacions i pronòstics meteorològics de més de 4000 aeroports (METAR i TAF).

Les estacions disponibles són els punts grocs i vermells al mapa.

Posi el ratolí al punt desitjat per veure el nom de l'estació.

Feu clic per veure les observacions i els pronòstics meteorològics.

Per canviar el mapa: feu clic els botons verds amb una creu de color negre per apropar; al botó verd amb un guió per allunyar la imatge; o en les fletxes verdes per a mapes adjacents.


METAR-TAF: